createdAt,value
2022-11-13T00:02:47.358Z,58.03
2022-11-13T00:05:33.787Z,56.45
2022-11-13T00:08:19.916Z,65.65
2022-11-13T00:11:08.526Z,48.10
2022-11-13T00:13:55.996Z,78.45
2022-11-13T00:16:42.118Z,83.82
2022-11-13T00:19:28.321Z,57.10
2022-11-13T00:22:14.402Z,46.85
2022-11-13T00:25:00.632Z,86.32
2022-11-13T00:27:46.729Z,65.47
2022-11-13T00:30:34.168Z,73.40
2022-11-13T00:33:38.300Z,82.25
2022-11-13T00:36:28.875Z,80.80
2022-11-13T00:39:15.041Z,52.83
2022-11-13T00:42:01.239Z,57.55
2022-11-13T00:44:47.260Z,67.43
2022-11-13T00:47:34.545Z,73.57
2022-11-13T00:50:20.852Z,47.35
2022-11-13T00:53:07.448Z,60.30
2022-11-13T00:55:53.860Z,60.83
2022-11-13T00:58:40.101Z,53.15
2022-11-13T01:01:26.376Z,78.05
2022-11-13T01:04:13.778Z,77.38
2022-11-13T01:07:00.142Z,68.70
2022-11-13T01:09:50.895Z,63.20
2022-11-13T01:12:37.371Z,97.75
2022-11-13T01:15:23.953Z,54.50
2022-11-13T01:18:10.607Z,106.00
2022-11-13T01:21:05.762Z,123.28
2022-11-13T01:23:53.612Z,118.88
2022-11-13T01:26:39.791Z,159.00
2022-11-13T01:29:25.861Z,120.25
2022-11-13T01:32:12.083Z,120.95
2022-11-13T01:34:58.590Z,147.90
2022-11-13T01:37:46.242Z,160.88
2022-11-13T01:40:32.442Z,72.38
2022-11-13T01:43:30.125Z,84.43
2022-11-13T01:46:28.568Z,86.50
2022-11-13T01:49:26.005Z,76.90
2022-11-13T01:52:16.522Z,94.75
2022-11-13T01:55:09.595Z,62.08
2022-11-13T01:57:55.847Z,108.70
2022-11-13T02:00:42.864Z,103.50
2022-11-13T02:03:29.422Z,98.80
2022-11-13T02:06:15.973Z,82.93
2022-11-13T02:09:02.470Z,79.88
2022-11-13T02:11:50.329Z,49.83
2022-11-13T02:14:39.441Z,99.32
2022-11-13T02:17:31.019Z,70.53
2022-11-13T02:20:19.949Z,56.72
2022-11-13T02:23:14.522Z,62.22
2022-11-13T02:26:03.322Z,50.58
2022-11-13T02:28:49.691Z,64.82
2022-11-13T02:31:35.900Z,62.50
2022-11-13T02:34:22.286Z,71.35
2022-11-13T02:37:08.395Z,49.10
2022-11-13T02:39:54.539Z,48.78
2022-11-13T02:42:42.213Z,48.63
2022-11-13T02:45:28.225Z,50.17
2022-11-13T02:48:14.427Z,60.30
2022-11-13T02:51:01.397Z,44.05
2022-11-13T02:53:47.560Z,43.10
2022-11-13T02:56:33.556Z,47.92
2022-11-13T02:59:20.977Z,30.77
2022-11-13T03:02:07.206Z,34.10
2022-11-13T03:08:00.138Z,43.67
2022-11-13T03:10:46.273Z,37.53
2022-11-13T03:13:32.323Z,35.63
2022-11-13T03:16:19.824Z,32.88
2022-11-13T03:19:05.868Z,38.30
2022-11-13T03:21:52.177Z,27.73
2022-11-13T03:24:38.335Z,29.20
2022-11-13T03:27:24.362Z,28.73
2022-11-13T03:30:11.609Z,32.88
2022-11-13T03:32:59.163Z,31.67
2022-11-13T03:35:47.087Z,32.42
2022-11-13T03:38:33.557Z,26.65
2022-11-13T03:41:19.885Z,22.40
2022-11-13T03:44:05.972Z,26.02
2022-11-13T03:46:52.306Z,58.55
2022-11-13T03:49:40.414Z,46.20
2022-11-13T03:52:26.699Z,18.70
2022-11-13T03:55:12.707Z,48.67
2022-11-13T03:57:59.999Z,56.95
2022-11-13T04:00:46.802Z,33.80
2022-11-13T04:03:33.174Z,30.75
2022-11-13T04:06:21.907Z,35.40
2022-11-13T04:09:08.718Z,28.23
2022-11-13T04:11:55.087Z,25.77
2022-11-13T04:14:41.208Z,25.58
2022-11-13T04:17:27.501Z,26.10
2022-11-13T04:20:13.562Z,25.48
2022-11-13T04:23:01.030Z,31.65
2022-11-13T04:25:49.507Z,28.15
2022-11-13T04:28:35.899Z,25.27
2022-11-13T04:31:22.364Z,26.60
2022-11-13T04:34:09.303Z,23.50
2022-11-13T04:36:55.659Z,23.48
2022-11-13T04:39:43.238Z,36.42
2022-11-13T04:42:46.951Z,23.63
2022-11-13T04:45:33.196Z,36.75
2022-11-13T04:48:19.319Z,26.73
2022-11-13T04:51:06.155Z,23.05
2022-11-13T04:53:52.266Z,27.90
2022-11-13T04:56:39.872Z,26.92
2022-11-13T04:59:26.225Z,27.23
2022-11-13T05:02:12.374Z,19.58
2022-11-13T05:05:04.375Z,24.77
2022-11-13T05:07:51.345Z,32.40
2022-11-13T05:10:37.932Z,23.90
2022-11-13T05:13:25.708Z,26.63
2022-11-13T05:16:14.824Z,18.17
2022-11-13T05:19:01.405Z,21.67
2022-11-13T05:21:47.536Z,21.00
2022-11-13T05:24:33.718Z,11.73
2022-11-13T05:27:19.996Z,10.95
2022-11-13T05:30:09.347Z,16.52
2022-11-13T05:32:55.726Z,15.18
2022-11-13T05:35:42.096Z,17.55
2022-11-13T05:38:29.891Z,12.73
2022-11-13T05:41:18.620Z,14.38
2022-11-13T05:44:04.814Z,11.48
2022-11-13T05:46:52.655Z,10.65
2022-11-13T05:49:38.839Z,14.50
2022-11-13T05:52:25.074Z,13.43
2022-11-13T05:55:11.259Z,16.33
2022-11-13T05:57:59.536Z,15.88
2022-11-13T06:00:45.615Z,15.23
2022-11-13T06:03:33.286Z,15.50
2022-11-13T06:06:20.946Z,14.88
2022-11-13T06:09:07.702Z,13.45
2022-11-13T06:11:53.870Z,11.07
2022-11-13T06:14:40.173Z,13.35
2022-11-13T06:17:26.207Z,13.40
2022-11-13T06:20:13.845Z,13.82
2022-11-13T06:23:00.114Z,18.52
2022-11-13T06:25:46.377Z,14.80
2022-11-13T06:28:33.606Z,17.23
2022-11-13T06:31:21.992Z,20.83
2022-11-13T06:34:08.389Z,24.02
2022-11-13T06:36:56.272Z,24.80
2022-11-13T06:39:42.462Z,18.90
2022-11-13T06:42:28.505Z,19.80
2022-11-13T06:45:14.905Z,24.15
2022-11-13T06:48:00.972Z,27.63
2022-11-13T06:50:48.670Z,22.30
2022-11-13T06:53:36.876Z,19.67
2022-11-13T06:56:23.692Z,28.65
2022-11-13T06:59:10.105Z,29.30
2022-11-13T07:01:56.602Z,27.67
2022-11-13T07:04:42.730Z,35.75
2022-11-13T07:07:28.868Z,31.63
2022-11-13T07:10:16.659Z,25.13
2022-11-13T07:13:03.135Z,53.03
2022-11-13T07:15:49.213Z,39.70
2022-11-13T07:18:35.757Z,59.33
2022-11-13T07:21:23.083Z,32.60
2022-11-13T07:24:15.545Z,33.38
2022-11-13T07:27:04.845Z,40.85
2022-11-13T07:29:50.856Z,29.88
2022-11-13T07:32:37.120Z,32.92
2022-11-13T07:35:23.461Z,38.60
2022-11-13T07:38:09.656Z,36.90
2022-11-13T07:40:55.846Z,42.50
2022-11-13T07:43:43.240Z,36.13
2022-11-13T07:46:29.427Z,44.08
2022-11-13T07:49:15.615Z,46.45
2022-11-13T07:52:01.791Z,48.67
2022-11-13T07:54:47.874Z,60.47
2022-11-13T07:57:34.025Z,66.50
2022-11-13T08:00:21.519Z,46.63
2022-11-13T08:03:08.463Z,35.13
2022-11-13T08:06:01.638Z,51.97
2022-11-13T08:08:48.578Z,53.40
2022-11-13T08:11:34.808Z,59.15
2022-11-13T08:14:20.839Z,51.67
2022-11-13T08:17:08.425Z,50.25
2022-11-13T08:19:54.508Z,52.55
2022-11-13T08:22:40.491Z,58.30
2022-11-13T08:25:27.155Z,57.28
2022-11-13T08:28:13.693Z,49.35
2022-11-13T08:31:00.116Z,54.70
2022-11-13T08:33:47.605Z,55.00
2022-11-13T08:36:33.850Z,55.83
2022-11-13T08:39:19.972Z,60.20
2022-11-13T08:42:06.557Z,55.00
2022-11-13T08:44:52.920Z,56.25
2022-11-13T08:47:39.254Z,61.85
2022-11-13T08:50:26.767Z,67.40
2022-11-13T08:53:12.927Z,58.40
2022-11-13T08:56:01.422Z,60.53
2022-11-13T08:58:50.262Z,60.67
2022-11-13T09:01:36.638Z,54.83
2022-11-13T09:04:22.833Z,63.65
2022-11-13T09:07:11.476Z,51.20
2022-11-13T09:09:58.101Z,52.08
2022-11-13T09:12:44.213Z,54.50
2022-11-13T09:15:30.853Z,38.08
2022-11-13T09:18:16.879Z,31.95
2022-11-13T09:21:04.074Z,21.98
2022-11-13T09:23:51.839Z,22.80
2022-11-13T09:26:38.111Z,18.45
2022-11-13T09:29:25.985Z,17.13
2022-11-13T09:32:12.139Z,16.92
2022-11-13T09:34:58.327Z,18.58
2022-11-13T09:37:44.634Z,18.40
2022-11-13T09:40:36.597Z,21.17
2022-11-13T09:43:33.275Z,19.33
2022-11-13T09:46:32.128Z,21.10
2022-11-13T09:49:23.076Z,16.65
2022-11-13T09:52:15.280Z,18.95
2022-11-13T09:55:01.795Z,19.75
2022-11-13T09:57:54.123Z,18.48
2022-11-13T10:00:41.116Z,17.13
2022-11-13T10:04:00.032Z,18.05
2022-11-13T10:06:55.983Z,15.35
2022-11-13T10:09:55.280Z,18.50
2022-11-13T10:12:41.634Z,16.33
2022-11-13T10:15:29.278Z,20.40
2022-11-13T10:18:21.272Z,18.55
2022-11-13T10:21:17.652Z,16.92
2022-11-13T10:24:14.439Z,17.33
2022-11-13T10:27:01.225Z,17.70
2022-11-13T10:29:49.176Z,20.52
2022-11-13T10:32:38.048Z,16.88
2022-11-13T10:35:39.820Z,13.32
2022-11-13T10:38:33.175Z,11.85
2022-11-13T10:41:21.113Z,12.35
2022-11-13T10:44:09.357Z,14.52
2022-11-13T10:47:06.539Z,14.68
2022-11-13T10:49:55.858Z,12.75
2022-11-13T10:52:46.795Z,15.02
2022-11-13T10:55:39.167Z,12.32
2022-11-13T10:58:26.028Z,12.05
2022-11-13T11:01:16.734Z,3.58
2022-11-13T11:04:05.031Z,15.95
2022-11-13T11:09:59.258Z,10.25
2022-11-13T11:12:53.140Z,15.55
2022-11-13T11:15:44.318Z,11.03
2022-11-13T11:18:37.273Z,16.10
2022-11-13T11:21:28.059Z,14.70
2022-11-13T11:24:21.190Z,12.93
2022-11-13T11:27:16.411Z,14.73
2022-11-13T11:30:05.760Z,12.23
2022-11-13T11:33:01.770Z,8.85
2022-11-13T11:35:53.390Z,10.27
2022-11-13T11:38:46.763Z,11.13
2022-11-13T11:41:41.544Z,13.30
2022-11-13T11:44:33.003Z,11.57
2022-11-13T11:47:19.742Z,10.65
2022-11-13T11:50:12.898Z,8.85
2022-11-13T11:53:05.431Z,11.68
2022-11-13T11:56:13.722Z,9.43
2022-11-13T11:59:14.309Z,9.38
2022-11-13T12:02:30.012Z,13.52
2022-11-13T12:05:24.745Z,10.98
2022-11-13T12:11:13.735Z,9.38
2022-11-13T12:14:14.770Z,9.75
2022-11-13T12:17:16.859Z,9.35
2022-11-13T12:20:22.260Z,10.07
2022-11-13T12:26:07.949Z,8.52
2022-11-13T12:29:03.519Z,10.10
2022-11-13T12:32:01.842Z,9.45
2022-11-13T12:34:52.783Z,8.73
2022-11-13T12:37:47.372Z,9.10
2022-11-13T12:46:20.329Z,9.27
2022-11-13T12:49:27.316Z,8.57
2022-11-13T12:52:22.789Z,7.13
2022-11-13T12:55:26.313Z,9.23
2022-11-13T12:58:20.560Z,9.00
2022-11-13T13:01:15.907Z,8.93
2022-11-13T13:04:19.097Z,10.15
2022-11-13T13:07:18.857Z,9.93
2022-11-13T13:10:14.834Z,7.70
2022-11-13T13:13:11.097Z,9.95
2022-11-13T13:16:02.595Z,7.78
2022-11-13T13:18:48.885Z,10.65
2022-11-13T13:21:42.760Z,8.68
2022-11-13T13:24:35.996Z,7.63
2022-11-13T13:27:24.399Z,9.75
2022-11-13T13:30:20.708Z,6.93
2022-11-13T13:33:17.781Z,9.07
2022-11-13T13:36:16.704Z,9.70
2022-11-13T13:39:12.969Z,9.27
2022-11-13T13:42:19.966Z,8.32
2022-11-13T13:45:25.290Z,8.73
2022-11-13T13:48:14.645Z,10.75
2022-11-13T13:51:01.704Z,9.55
2022-11-13T13:53:50.152Z,9.07
2022-11-13T13:56:42.279Z,10.48
2022-11-13T13:59:33.284Z,11.60
2022-11-13T14:02:23.074Z,10.00
2022-11-13T14:05:24.923Z,8.82
2022-11-13T14:08:18.138Z,7.95
2022-11-13T14:11:16.687Z,10.18
2022-11-13T14:14:10.077Z,8.05
2022-11-13T14:17:01.681Z,9.68
2022-11-13T14:19:50.851Z,8.38
2022-11-13T14:22:37.547Z,12.02
2022-11-13T14:25:27.555Z,8.77
2022-11-13T14:28:16.922Z,9.55
2022-11-13T14:31:05.417Z,8.45
2022-11-13T14:33:53.383Z,8.32
2022-11-13T14:36:40.947Z,10.00
2022-11-13T14:39:31.161Z,9.20
2022-11-13T14:42:20.852Z,10.00
2022-11-13T14:45:19.181Z,11.30
2022-11-13T14:48:19.090Z,16.20
2022-11-13T14:51:22.029Z,9.18
2022-11-13T14:54:29.135Z,9.15
2022-11-13T14:57:19.950Z,11.07
2022-11-13T15:00:14.441Z,10.70
2022-11-13T15:03:02.005Z,10.52
2022-11-13T15:05:48.254Z,9.25
2022-11-13T15:08:38.849Z,11.10
2022-11-13T15:11:26.837Z,11.15
2022-11-13T15:14:15.020Z,10.75
2022-11-13T15:17:01.214Z,9.75
2022-11-13T15:19:49.453Z,11.35
2022-11-13T15:22:42.866Z,10.95
2022-11-13T15:25:30.470Z,12.77
2022-11-13T15:28:16.683Z,13.25
2022-11-13T15:31:02.657Z,12.55
2022-11-13T15:33:49.711Z,13.88
2022-11-13T15:36:36.209Z,16.05
2022-11-13T15:39:24.099Z,13.02
2022-11-13T15:42:17.158Z,14.70
2022-11-13T15:45:05.912Z,10.90
2022-11-13T15:47:52.337Z,8.75
2022-11-13T15:50:38.555Z,9.40
2022-11-13T15:53:24.720Z,14.32
2022-11-13T15:56:11.217Z,11.32
2022-11-13T15:58:59.716Z,10.23
2022-11-13T16:01:47.197Z,12.82
2022-11-13T16:04:54.630Z,10.90
2022-11-13T16:07:42.258Z,12.43
2022-11-13T16:10:28.739Z,12.43
2022-11-13T16:13:14.892Z,10.23
2022-11-13T16:16:02.537Z,14.80
2022-11-13T16:18:50.220Z,13.90
2022-11-13T16:21:36.547Z,14.00
2022-11-13T16:24:24.206Z,11.32
2022-11-13T16:27:16.062Z,13.35
2022-11-13T16:30:06.910Z,12.23
2022-11-13T16:32:55.362Z,13.40
2022-11-13T16:35:41.868Z,15.43
2022-11-13T16:38:28.546Z,8.43
2022-11-13T16:41:16.467Z,15.25
2022-11-13T16:44:02.866Z,11.70
2022-11-13T16:46:49.635Z,14.82
2022-11-13T16:49:37.387Z,17.25
2022-11-13T16:52:26.731Z,19.63
2022-11-13T16:55:13.173Z,21.55
2022-11-13T16:57:59.553Z,26.00
2022-11-13T17:00:45.671Z,26.88
2022-11-13T17:03:31.935Z,28.38
2022-11-13T17:06:26.500Z,30.85
2022-11-13T17:09:12.915Z,29.20
2022-11-13T17:11:59.136Z,34.10
2022-11-13T17:14:47.199Z,46.78
2022-11-13T17:17:33.090Z,37.85
2022-11-13T17:20:19.617Z,37.08
2022-11-13T17:23:07.667Z,32.42
2022-11-13T17:25:53.800Z,29.83
2022-11-13T17:28:40.619Z,31.88
2022-11-13T17:31:27.396Z,24.30
2022-11-13T17:34:13.543Z,27.17
2022-11-13T17:37:01.009Z,28.50
2022-11-13T17:39:48.767Z,25.75
2022-11-13T17:42:34.936Z,20.33
2022-11-13T17:45:21.123Z,23.40
2022-11-13T17:48:07.564Z,25.65
2022-11-13T17:50:58.012Z,26.77
2022-11-13T17:53:44.188Z,30.23
2022-11-13T17:56:33.609Z,27.92
2022-11-13T17:59:20.012Z,19.55
2022-11-13T18:02:09.114Z,20.92
2022-11-13T18:04:58.214Z,22.00
2022-11-13T18:07:44.526Z,22.23
2022-11-13T18:10:31.658Z,23.80
2022-11-13T18:13:19.153Z,21.38
2022-11-13T18:16:06.766Z,32.30
2022-11-13T18:18:55.400Z,31.27
2022-11-13T18:21:42.052Z,27.15
2022-11-13T18:24:28.571Z,25.25
2022-11-13T18:27:15.019Z,23.45
2022-11-13T18:30:02.754Z,23.92
2022-11-13T18:32:48.999Z,22.77
2022-11-13T18:35:35.231Z,19.90
2022-11-13T18:38:21.355Z,28.45
2022-11-13T18:41:09.831Z,27.33
2022-11-13T18:43:56.173Z,29.92
2022-11-13T18:46:44.158Z,38.33
2022-11-13T18:49:30.528Z,30.38
2022-11-13T18:52:16.737Z,33.58
2022-11-13T18:55:02.959Z,26.70
2022-11-13T18:57:49.156Z,24.73
2022-11-13T19:00:37.151Z,30.23
2022-11-13T19:03:25.239Z,28.52
2022-11-13T19:06:13.746Z,27.20
2022-11-13T19:09:01.491Z,26.10
2022-11-13T19:11:47.961Z,29.63
2022-11-13T19:14:34.369Z,25.17
2022-11-13T19:17:20.777Z,21.65
2022-11-13T19:20:10.579Z,19.23
2022-11-13T19:22:56.910Z,22.90
2022-11-13T19:25:43.293Z,23.92
2022-11-13T19:28:30.301Z,23.25
2022-11-13T19:31:20.847Z,24.52
2022-11-13T19:34:08.742Z,32.85
2022-11-13T19:36:56.531Z,29.63
2022-11-13T19:39:42.697Z,27.08
2022-11-13T19:42:28.934Z,27.42
2022-11-13T19:45:14.880Z,29.63
2022-11-13T19:48:01.283Z,26.42
2022-11-13T19:50:47.576Z,26.33
2022-11-13T19:53:35.208Z,27.02
2022-11-13T19:56:23.011Z,23.38
2022-11-13T19:59:11.034Z,29.20
2022-11-13T20:01:57.662Z,28.02
2022-11-13T20:04:44.158Z,24.90
2022-11-13T20:07:30.497Z,23.25
2022-11-13T20:10:19.044Z,28.23
2022-11-13T20:13:05.115Z,22.20
2022-11-13T20:15:54.047Z,27.25
2022-11-13T20:18:41.447Z,34.78
2022-11-13T20:21:30.228Z,25.02
2022-11-13T20:24:16.763Z,20.73
2022-11-13T20:27:04.726Z,32.80
2022-11-13T20:29:51.367Z,35.33
2022-11-13T20:32:37.918Z,39.42
2022-11-13T20:35:24.264Z,41.28
2022-11-13T20:38:10.950Z,37.88
2022-11-13T20:40:58.195Z,33.40
2022-11-13T20:43:45.882Z,38.47
2022-11-13T20:46:32.896Z,36.78
2022-11-13T20:49:19.238Z,40.85
2022-11-13T20:52:06.998Z,34.60
2022-11-13T20:54:53.197Z,35.42
2022-11-13T20:57:41.022Z,32.78
2022-11-13T21:00:28.985Z,35.33
2022-11-13T21:03:15.148Z,30.88
2022-11-13T21:06:01.496Z,33.78
2022-11-13T21:08:48.591Z,37.47
2022-11-13T21:11:35.131Z,37.58
2022-11-13T21:14:21.414Z,40.47
2022-11-13T21:17:08.895Z,46.65
2022-11-13T21:19:57.615Z,36.42
2022-11-13T21:22:44.308Z,35.85
2022-11-13T21:25:31.294Z,32.25
2022-11-13T21:28:22.504Z,36.47
2022-11-13T21:31:15.750Z,31.92
2022-11-13T21:34:03.929Z,39.88
2022-11-13T21:36:50.391Z,34.38
2022-11-13T21:39:36.635Z,34.55
2022-11-13T21:42:22.672Z,37.25
2022-11-13T21:45:09.866Z,36.53
2022-11-13T21:47:56.129Z,36.72
2022-11-13T21:50:43.573Z,45.95
2022-11-13T21:53:29.684Z,38.95
2022-11-13T21:56:16.225Z,37.38
2022-11-13T21:59:02.487Z,49.92
2022-11-13T22:01:48.632Z,40.92
2022-11-13T22:04:34.814Z,36.33
2022-11-13T22:07:22.363Z,36.92
2022-11-13T22:10:10.486Z,31.15
2022-11-13T22:12:56.993Z,34.42
2022-11-13T22:15:43.136Z,25.88
2022-11-13T22:18:29.649Z,32.15
2022-11-13T22:21:16.654Z,28.40
2022-11-13T22:24:04.345Z,28.48
2022-11-13T22:26:50.788Z,30.02
2022-11-13T22:29:37.004Z,32.28
2022-11-13T22:32:22.995Z,27.45
2022-11-13T22:35:11.681Z,28.52
2022-11-13T22:37:59.326Z,31.10
2022-11-13T22:40:47.296Z,38.38
2022-11-13T22:43:35.065Z,33.67
2022-11-13T22:46:23.002Z,36.67
2022-11-13T22:49:11.430Z,38.92
2022-11-13T22:51:57.519Z,37.30
2022-11-13T22:54:43.695Z,45.80
2022-11-13T22:57:32.709Z,45.42
2022-11-13T23:00:19.228Z,43.63
2022-11-13T23:03:05.697Z,44.35
2022-11-13T23:05:52.295Z,43.33
2022-11-13T23:08:39.756Z,42.90
2022-11-13T23:11:27.532Z,44.30
2022-11-13T23:14:16.966Z,58.80
2022-11-13T23:17:03.343Z,49.88
2022-11-13T23:19:49.547Z,48.83
2022-11-13T23:22:35.622Z,54.60
2022-11-13T23:25:21.654Z,94.68
2022-11-13T23:28:07.719Z,52.70
2022-11-13T23:30:55.231Z,56.15
2022-11-13T23:33:41.539Z,76.20
2022-11-13T23:36:28.099Z,61.40
2022-11-13T23:39:14.824Z,43.97
2022-11-13T23:42:01.181Z,49.95
2022-11-13T23:44:47.302Z,47.35
2022-11-13T23:47:34.836Z,49.47
2022-11-13T23:50:21.011Z,40.88
2022-11-13T23:53:07.205Z,40.03
2022-11-13T23:55:53.412Z,40.25
2022-11-13T23:58:39.709Z,35.42
